Time;durP1;ratioP1;P1;durP2;ratioP2;P2;SDS_P1;SDS_P2;PMS_P1;PMS_P2;Temp;Humidity;BMP_temperature;BMP_pressure;BME280_temperature;BME280_humidity;BME280_pressure;Samples;Min_cycle;Max_cycle;Signal;HPM_P1;HPM_P2
2021/12/13 00:01:18;;;;;;;101.30;26.63;;;10.20;99.90;;;;;;5119162;28;20060;-68
2021/12/13 00:03:50;;;;;;;83.28;24.40;;;10.20;99.90;;;;;;5123592;28;20044;-68
2021/12/13 00:06:31;;;;;;;87.68;24.88;;;10.20;99.90;;;;;;5119898;28;20065;-68
2021/12/13 00:09:03;;;;;;;86.72;24.38;;;10.20;99.90;;;;;;5109266;28;20150;-67
2021/12/13 00:11:33;;;;;;;68.82;22.08;;;10.20;99.90;;;;;;5123053;28;20081;-67
2021/12/13 00:14:13;;;;;;;66.68;22.17;;;10.20;99.90;;;;;;5102146;28;20036;-67
2021/12/13 00:16:46;;;;;;;60.42;22.08;;;10.20;99.90;;;;;;5086466;28;20082;-67
2021/12/13 00:19:21;;;;;;;54.45;20.80;;;10.20;99.90;;;;;;5105726;28;20035;-68
2021/12/13 00:21:59;;;;;;;72.00;22.35;;;10.20;99.90;;;;;;5123659;28;20047;-67
2021/12/13 00:24:29;;;;;;;65.57;22.27;;;10.20;99.90;;;;;;5105173;28;20134;-67
2021/12/13 00:27:11;;;;;;;66.25;22.02;;;10.20;99.90;;;;;;5124088;28;20081;-67
2021/12/13 00:29:59;;;;;;;60.17;22.00;;;10.20;99.90;;;;;;5123529;28;20039;-67
2021/12/13 00:32:33;;;;;;;;;;;10.20;99.90;;;;;;5123821;28;20078;-67
2021/12/13 00:35:04;;;;;;;54.92;21.85;;;10.10;99.90;;;;;;5123757;28;20034;-68
2021/12/13 00:37:47;;;;;;;56.72;21.20;;;10.20;99.90;;;;;;5123512;28;20182;-67
2021/12/13 00:40:24;;;;;;;65.10;23.55;;;10.20;99.90;;;;;;5123160;28;20474;-68
2021/12/13 00:42:55;;;;;;;68.32;24.00;;;10.20;99.90;;;;;;5104781;28;20142;-67
2021/12/13 00:45:25;;;;;;;56.05;22.13;;;10.20;99.90;;;;;;5123296;28;20050;-67
2021/12/13 00:47:51;;;;;;;76.55;24.70;;;10.20;99.90;;;;;;5106187;28;20116;-67
2021/12/13 00:50:40;;;;;;;74.70;24.85;;;10.20;99.90;;;;;;5123320;28;20529;-67
2021/12/13 00:53:07;;;;;;;80.15;25.25;;;10.20;99.90;;;;;;5104412;28;20051;-67
2021/12/13 00:55:34;;;;;;;72.65;24.25;;;10.20;99.90;;;;;;5104557;28;20048;-68
2021/12/13 00:58:03;;;;;;;69.95;24.70;;;10.20;99.90;;;;;;5123256;28;20042;-67
2021/12/13 01:00:38;;;;;;;82.95;25.63;;;10.20;99.90;;;;;;5122661;28;20396;-67
2021/12/13 01:03:11;;;;;;;73.82;25.17;;;10.20;99.90;;;;;;5122508;28;20055;-68
2021/12/13 01:05:48;;;;;;;86.88;26.45;;;10.20;99.90;;;;;;5101342;28;20104;-68
2021/12/13 01:08:48;;;;;;;78.03;26.50;;;10.20;99.90;;;;;;5109842;28;20097;-67
2021/12/13 01:11:50;;;;;;;78.07;25.27;;;10.20;99.90;;;;;;5122640;28;20078;-68
2021/12/13 01:14:52;;;;;;;77.93;24.92;;;10.20;99.90;;;;;;5122885;28;20052;-68
2021/12/13 01:17:36;;;;;;;83.68;26.98;;;10.20;99.90;;;;;;5083231;28;20058;-68
2021/12/13 01:20:24;;;;;;;75.90;25.95;;;10.20;99.90;;;;;;5084539;28;20040;-68
2021/12/13 01:23:01;;;;;;;79.25;26.70;;;10.20;99.90;;;;;;5084313;28;20058;-68
2021/12/13 01:25:47;;;;;;;71.95;26.67;;;10.20;99.90;;;;;;5099588;28;20044;-68
2021/12/13 01:28:27;;;;;;;73.47;25.63;;;10.20;99.90;;;;;;5123095;28;20111;-68
2021/12/13 01:30:59;;;;;;;79.85;26.30;;;10.20;99.90;;;;;;5122695;28;20044;-68
2021/12/13 01:33:27;;;;;;;84.38;26.75;;;10.20;99.90;;;;;;5123003;28;20040;-68
2021/12/13 01:35:56;;;;;;;104.55;28.33;;;10.20;99.90;;;;;;5104327;28;20103;-68
2021/12/13 01:38:33;;;;;;;75.25;26.20;;;10.20;99.90;;;;;;5103825;28;20069;-68
2021/12/13 01:41:02;;;;;;;95.20;28.05;;;10.20;99.90;;;;;;5122800;28;20154;-68
2021/12/13 01:43:31;;;;;;;89.38;25.30;;;10.20;99.90;;;;;;5122945;28;20044;-68
2021/12/13 01:45:58;;;;;;;60.15;22.17;;;10.20;99.90;;;;;;5102126;28;20035;-68
2021/12/13 01:48:31;;;;;;;74.28;23.17;;;10.20;99.90;;;;;;5089747;28;20099;-68
2021/12/13 01:51:05;;;;;;;65.40;21.88;;;10.20;99.90;;;;;;5122421;28;20051;-68
2021/12/13 01:54:00;;;;;;;69.85;23.10;;;10.20;99.90;;;;;;5122714;28;20050;-68
2021/12/13 01:56:41;;;;;;;71.18;22.83;;;10.20;99.90;;;;;;5094323;28;20048;-68
2021/12/13 02:02:14;;;;;;;60.60;22.02;;;10.20;99.90;;;;;;5113214;28;20040;-68
2021/12/13 02:04:42;;;;;;;53.47;20.45;;;10.20;99.90;;;;;;5104253;28;20044;-68
2021/12/13 02:07:08;;;;;;;63.67;23.00;;;10.20;99.90;;;;;;5095810;28;20059;-67
2021/12/13 02:09:37;;;;;;;;;;;10.20;99.90;;;;;;5108666;28;20056;-68
2021/12/13 02:12:11;;;;;;;46.08;19.30;;;10.20;99.90;;;;;;5097103;28;19932;-68
2021/12/13 02:14:47;;;;;;;53.03;21.05;;;10.20;99.90;;;;;;5083691;28;20115;-68
2021/12/13 02:17:21;;;;;;;54.20;21.17;;;10.20;99.90;;;;;;5079978;28;20073;-68
2021/12/13 02:19:59;;;;;;;54.60;22.30;;;10.20;99.90;;;;;;5069224;28;20041;-68
2021/12/13 02:22:49;;;;;;;59.85;22.98;;;10.30;99.90;;;;;;5063863;28;20064;-68
2021/12/13 02:25:31;;;;;;;60.08;23.55;;;10.30;99.90;;;;;;5067186;28;20095;-67
2021/12/13 02:28:02;;;;;;;58.22;22.30;;;10.30;99.90;;;;;;5065572;28;20526;-68
2021/12/13 02:30:32;;;;;;;57.50;23.60;;;10.30;99.90;;;;;;5080327;28;20060;-68
2021/12/13 02:32:58;;;;;;;69.13;24.52;;;10.30;99.90;;;;;;5080973;28;20076;-68
2021/12/13 02:35:29;;;;;;;59.90;24.73;;;10.20;99.90;;;;;;5082654;28;20044;-68
2021/12/13 02:37:57;;;;;;;60.88;24.85;;;10.30;99.90;;;;;;5084622;28;20059;-68
2021/12/13 02:40:23;;;;;;;59.70;24.35;;;10.30;99.90;;;;;;5085430;28;20032;-68
2021/12/13 02:42:49;;;;;;;68.40;25.35;;;10.30;99.90;;;;;;5077097;28;20041;-68
2021/12/13 02:45:20;;;;;;;62.53;24.92;;;10.30;99.90;;;;;;5073291;28;20048;-68
2021/12/13 02:48:07;;;;;;;62.92;25.67;;;10.30;99.90;;;;;;5071161;28;20029;-68
2021/12/13 02:51:01;;;;;;;73.47;27.13;;;10.20;99.90;;;;;;5076402;28;20450;-68
2021/12/13 02:53:38;;;;;;;65.82;26.15;;;10.20;99.90;;;;;;5042351;28;20108;-68
2021/12/13 02:56:04;;;;;;;64.35;26.15;;;10.30;99.90;;;;;;5060690;28;20056;-67
2021/12/13 02:58:32;;;;;;;58.00;25.05;;;10.20;99.90;;;;;;5054009;28;20117;-68
2021/12/13 03:01:06;;;;;;;64.43;26.33;;;10.20;99.90;;;;;;5042631;28;20087;-68
2021/12/13 03:03:36;;;;;;;69.93;26.80;;;10.20;99.90;;;;;;5042039;28;20052;-68
2021/12/13 03:06:05;;;;;;;69.80;26.27;;;10.20;99.90;;;;;;5046336;28;20038;-68
2021/12/13 03:08:40;;;;;;;67.05;25.92;;;10.20;99.90;;;;;;5029059;28;20045;-68
2021/12/13 03:11:22;;;;;;;54.20;24.60;;;10.20;99.90;;;;;;5047698;28;20150;-67
2021/12/13 03:13:53;;;;;;;62.60;25.08;;;10.20;99.90;;;;;;5059540;28;20063;-68
2021/12/13 03:16:23;;;;;;;68.05;26.17;;;10.20;99.90;;;;;;5065262;28;20139;-68
2021/12/13 03:19:08;;;;;;;58.13;25.35;;;10.20;99.90;;;;;;5071086;28;20041;-68
2021/12/13 03:21:57;;;;;;;73.13;25.10;;;10.20;99.90;;;;;;5081952;28;20105;-68
2021/12/13 03:24:34;;;;;;;56.63;24.65;;;10.10;99.90;;;;;;5080645;28;20063;-68
2021/12/13 03:27:24;;;;;;;60.05;24.25;;;10.10;99.90;;;;;;5065062;28;20036;-68
2021/12/13 03:30:17;;;;;;;61.47;23.02;;;10.10;99.90;;;;;;5050811;28;20116;-68
2021/12/13 03:32:58;;;;;;;59.63;23.08;;;10.10;99.90;;;;;;5094638;28;20539;-68
2021/12/13 03:35:40;;;;;;;55.30;22.92;;;10.10;99.90;;;;;;5082395;28;20044;-67
2021/12/13 03:38:18;;;;;;;70.10;25.10;;;10.10;99.90;;;;;;5082500;28;20044;-68
2021/12/13 03:40:45;;;;;;;54.95;24.17;;;10.10;99.90;;;;;;5074244;28;20056;-68
2021/12/13 03:43:15;;;;;;;72.38;24.17;;;10.10;99.90;;;;;;5082562;28;20053;-68
2021/12/13 03:45:50;;;;;;;53.42;24.40;;;10.10;99.90;;;;;;5083834;28;20054;-68
2021/12/13 03:48:18;;;;;;;54.65;22.95;;;10.10;99.90;;;;;;5081762;28;20057;-68
2021/12/13 03:50:49;;;;;;;59.92;24.00;;;10.00;99.90;;;;;;5083594;28;20040;-68
2021/12/13 03:53:19;;;;;;;57.60;23.00;;;10.00;99.90;;;;;;5082541;28;20101;-68
2021/12/13 03:55:48;;;;;;;56.75;23.17;;;10.00;99.90;;;;;;5083429;28;20097;-68
2021/12/13 03:58:17;;;;;;;58.28;22.92;;;10.00;99.90;;;;;;5083230;28;20052;-68
2021/12/13 04:00:52;;;;;;;50.63;22.33;;;10.00;99.90;;;;;;5083344;28;20115;-68
2021/12/13 04:03:19;;;;;;;55.92;21.48;;;10.00;99.90;;;;;;5081641;28;20106;-68
2021/12/13 04:05:47;;;;;;;51.63;21.25;;;10.00;99.90;;;;;;5078492;28;20055;-67
2021/12/13 04:08:16;;;;;;;45.60;17.85;;;10.00;99.90;;;;;;5064138;28;20029;-68
2021/12/13 04:10:57;;;;;;;55.30;18.10;;;10.00;99.90;;;;;;5068051;28;20045;-68
2021/12/13 04:13:27;;;;;;;38.92;16.67;;;10.00;99.90;;;;;;5102653;28;20463;-68
2021/12/13 04:16:14;;;;;;;45.05;16.83;;;9.90;99.90;;;;;;5124293;28;20043;-68
2021/12/13 04:21:20;;;;;;;39.05;13.82;;;9.90;99.90;;;;;;5104284;28;20058;-68
2021/12/13 04:23:55;;;;;;;36.53;13.27;;;9.90;99.90;;;;;;5124078;28;20044;-68
2021/12/13 04:26:23;;;;;;;28.50;12.07;;;9.90;99.90;;;;;;5105642;28;20395;-68
2021/12/13 04:28:51;;;;;;;32.05;12.32;;;9.90;99.90;;;;;;5123649;28;20510;-67
2021/12/13 04:31:22;;;;;;;28.38;12.43;;;9.90;99.90;;;;;;5123235;28;20039;-67
2021/12/13 04:33:51;;;;;;;31.65;12.55;;;9.90;99.90;;;;;;5087536;28;20154;-67
2021/12/13 04:36:25;;;;;;;35.60;12.32;;;9.90;99.90;;;;;;5105453;28;20051;-67
2021/12/13 04:38:59;;;;;;;26.00;12.73;;;9.80;99.90;;;;;;5101615;28;20036;-68
2021/12/13 04:41:35;;;;;;;27.45;10.48;;;9.80;99.90;;;;;;5095106;28;20128;-67
2021/12/13 04:44:08;;;;;;;27.48;11.60;;;9.80;99.90;;;;;;5104946;28;20084;-68
2021/12/13 04:46:36;;;;;;;24.98;10.15;;;9.80;99.90;;;;;;5104567;28;20047;-68
2021/12/13 04:49:10;;;;;;;23.88;10.00;;;9.80;99.90;;;;;;5119029;28;20050;-68
2021/12/13 04:51:52;;;;;;;22.77;9.07;;;9.80;99.90;;;;;;5114769;28;20472;-67
2021/12/13 04:54:17;;;;;;;16.10;8.90;;;9.80;99.90;;;;;;5123102;28;20063;-68
2021/12/13 04:56:45;;;;;;;24.58;9.68;;;9.80;99.90;;;;;;5100935;28;20074;-67
2021/12/13 04:59:14;;;;;;;20.60;9.45;;;9.80;99.90;;;;;;5084642;28;20118;-67
2021/12/13 05:01:46;;;;;;;22.98;8.88;;;9.80;99.90;;;;;;5091909;28;20055;-67
2021/12/13 05:04:12;;;;;;;16.02;8.13;;;9.80;99.90;;;;;;5104399;28;20048;-67
2021/12/13 05:06:40;;;;;;;19.38;9.38;;;9.80;99.90;;;;;;5123239;28;20039;-68
2021/12/13 05:09:12;;;;;;;20.30;8.63;;;9.80;99.90;;;;;;5105097;28;20107;-68
2021/12/13 05:11:43;;;;;;;28.00;9.07;;;9.80;99.90;;;;;;5103955;28;20056;-67
2021/12/13 05:14:11;;;;;;;14.77;7.25;;;9.80;99.90;;;;;;5084493;28;20066;-68
2021/12/13 05:16:51;;;;;;;16.95;7.88;;;9.80;99.90;;;;;;5113784;28;20143;-67
2021/12/13 05:19:28;;;;;;;14.50;7.32;;;9.80;99.90;;;;;;5103719;28;20056;-67
2021/12/13 05:21:56;;;;;;;12.63;7.05;;;9.80;99.90;;;;;;5123085;28;20553;-66
2021/12/13 05:24:27;;;;;;;13.52;6.90;;;9.70;99.90;;;;;;5123045;28;20138;-68
2021/12/13 05:27:04;;;;;;;12.20;6.05;;;9.80;99.90;;;;;;5123033;28;20055;-68
2021/12/13 05:29:37;;;;;;;11.73;6.07;;;9.80;99.90;;;;;;5113232;28;20555;-67
2021/12/13 05:32:17;;;;;;;14.50;6.90;;;9.80;99.90;;;;;;5119176;28;20091;-68
2021/12/13 05:34:50;;;;;;;16.48;7.00;;;9.70;99.90;;;;;;5123443;28;20049;-67
2021/12/13 05:37:17;;;;;;;14.40;6.20;;;9.70;99.90;;;;;;5126564;28;20067;-67
2021/12/13 05:40:08;;;;;;;18.13;5.93;;;9.70;99.90;;;;;;5127179;28;20047;-68
2021/12/13 05:42:52;;;;;;;14.18;6.18;;;9.70;99.90;;;;;;5126708;28;20061;-68
2021/12/13 05:45:30;;;;;;;14.02;6.47;;;9.70;99.90;;;;;;5127040;28;20047;-67
2021/12/13 05:48:11;;;;;;;12.95;6.20;;;9.70;99.90;;;;;;5123898;28;20340;-68
2021/12/13 05:50:45;;;;;;;14.40;7.03;;;9.70;99.90;;;;;;5126858;28;20082;-68
2021/12/13 05:53:26;;;;;;;14.98;6.82;;;9.70;99.90;;;;;;5091246;28;20070;-68
2021/12/13 05:56:11;;;;;;;12.48;6.38;;;9.70;99.90;;;;;;5108047;28;20057;-67
2021/12/13 05:58:37;;;;;;;15.23;6.85;;;9.70;99.90;;;;;;5104137;28;20048;-67
2021/12/13 06:01:11;;;;;;;11.80;7.03;;;9.70;99.90;;;;;;5088201;28;20116;-68
2021/12/13 06:03:41;;;;;;;12.07;6.45;;;9.70;99.90;;;;;;5097093;28;20039;-67
2021/12/13 06:06:11;;;;;;;12.35;7.07;;;9.70;99.90;;;;;;5104623;28;20450;-67
2021/12/13 06:08:46;;;;;;;14.73;7.03;;;9.70;99.90;;;;;;5104590;28;20036;-67
2021/12/13 06:11:16;;;;;;;12.60;6.78;;;9.70;99.90;;;;;;5126494;28;20058;-67
2021/12/13 06:13:46;;;;;;;19.42;7.35;;;9.70;99.90;;;;;;5125946;28;20105;-67
2021/12/13 06:16:24;;;;;;;12.30;7.45;;;9.70;99.90;;;;;;5108201;28;20043;-67
2021/12/13 06:19:07;;;;;;;17.85;7.75;;;9.70;99.90;;;;;;5119620;28;20047;-68
2021/12/13 06:21:54;;;;;;;20.17;8.23;;;9.70;99.90;;;;;;5107455;28;20086;-67
2021/12/13 06:24:25;;;;;;;13.77;7.70;;;9.70;99.90;;;;;;5126050;28;20048;-67
2021/12/13 06:27:00;;;;;;;18.63;9.45;;;9.60;99.90;;;;;;5126371;28;20051;-69
2021/12/13 06:30:03;;;;;;;15.63;8.15;;;9.60;99.90;;;;;;5107175;28;20498;-79
2021/12/13 06:32:40;;;;;;;17.45;8.90;;;9.60;99.90;;;;;;5103119;28;20099;-66
2021/12/13 06:35:43;;;;;;;15.70;8.75;;;9.60;99.90;;;;;;5118592;28;20412;-66
2021/12/13 06:38:31;;;;;;;13.38;8.55;;;9.60;99.90;;;;;;5107143;28;20092;-66
2021/12/13 06:41:08;;;;;;;21.35;10.63;;;9.60;99.90;;;;;;5122209;28;20111;-67
2021/12/13 06:43:36;;;;;;;15.15;8.63;;;9.60;99.90;;;;;;5123765;28;20044;-65
2021/12/13 06:46:10;;;;;;;16.20;9.02;;;9.60;99.90;;;;;;5107033;28;20071;-66
2021/12/13 06:48:39;;;;;;;16.92;9.98;;;9.60;99.90;;;;;;5125102;28;20127;-66
2021/12/13 06:51:08;;;;;;;13.52;8.65;;;9.60;99.90;;;;;;5125694;28;20060;-69
2021/12/13 06:53:34;;;;;;;18.90;9.38;;;9.60;99.90;;;;;;5124217;28;20606;-67
2021/12/13 06:56:21;;;;;;;20.23;10.15;;;9.60;99.90;;;;;;5123383;28;20039;-66
2021/12/13 06:58:48;;;;;;;;;;;9.60;99.90;;;;;;5103536;28;20123;-66
2021/12/13 07:01:14;;;;;;;20.05;9.70;;;9.50;99.90;;;;;;5086811;28;20002;-69
2021/12/13 07:03:40;;;;;;;24.52;9.48;;;9.50;99.90;;;;;;5098390;28;20047;-66
2021/12/13 07:06:05;;;;;;;16.50;9.50;;;9.50;99.90;;;;;;5106451;28;20081;-67
2021/12/13 07:08:35;;;;;;;17.98;9.35;;;9.60;99.90;;;;;;5104195;28;20294;-66
2021/12/13 07:11:03;;;;;;;21.33;8.95;;;9.50;99.90;;;;;;5090110;28;20059;-65
2021/12/13 07:13:58;;;;;;;17.20;8.80;;;9.50;99.90;;;;;;5105715;28;20070;-64
2021/12/13 07:16:29;;;;;;;17.25;9.25;;;9.50;99.90;;;;;;5070146;28;20048;-67
2021/12/13 07:19:20;;;;;;;13.60;9.43;;;9.50;99.90;;;;;;5104217;28;20116;-65
2021/12/13 07:21:55;;;;;;;14.40;9.07;;;9.50;99.90;;;;;;5100852;28;20044;-65
2021/12/13 07:24:40;;;;;;;17.80;9.77;;;9.50;99.90;;;;;;5070754;28;20052;-65
2021/12/13 07:27:12;;;;;;;14.38;9.23;;;9.50;99.90;;;;;;5125100;28;20072;-79
2021/12/13 07:29:48;;;;;;;21.20;10.93;;;9.50;99.90;;;;;;5124775;28;20132;-67
2021/12/13 07:32:40;;;;;;;16.10;10.13;;;9.50;99.90;;;;;;5101791;28;20077;-65
2021/12/13 07:35:23;;;;;;;16.90;9.88;;;9.50;99.90;;;;;;5122051;28;20058;-67
2021/12/13 07:38:10;;;;;;;17.40;10.52;;;9.50;99.90;;;;;;5124242;28;20054;-67
2021/12/13 07:40:50;;;;;;;21.95;10.65;;;9.50;99.90;;;;;;5105716;28;20593;-66
2021/12/13 07:43:34;;;;;;;16.95;10.63;;;9.50;99.90;;;;;;5102869;28;20046;-67
2021/12/13 07:46:08;;;;;;;18.98;10.63;;;9.50;99.90;;;;;;5117856;28;20463;-66
2021/12/13 07:48:40;;;;;;;20.55;12.00;;;9.50;99.90;;;;;;5104766;28;20031;-65
2021/12/13 07:51:27;;;;;;;22.58;10.93;;;9.50;99.90;;;;;;5123689;28;20043;-65
2021/12/13 07:53:58;;;;;;;17.63;11.55;;;9.50;99.90;;;;;;5123433;28;20047;-64
2021/12/13 07:56:40;;;;;;;22.30;12.55;;;9.50;99.90;;;;;;5095846;28;20048;-65
2021/12/13 07:59:08;;;;;;;21.48;11.40;;;9.50;99.90;;;;;;5123741;28;20150;-65
2021/12/13 08:01:56;;;;;;;20.08;11.73;;;9.50;99.90;;;;;;5105798;28;20123;-64
2021/12/13 08:04:26;;;;;;;19.23;12.07;;;9.50;99.90;;;;;;5104085;28;20044;-63
2021/12/13 08:07:06;;;;;;;24.13;12.30;;;9.50;99.90;;;;;;5098220;28;20111;-64
2021/12/13 08:09:33;;;;;;;23.13;12.50;;;9.50;99.90;;;;;;5093165;28;20048;-63
2021/12/13 08:12:21;;;;;;;22.75;14.02;;;9.50;99.90;;;;;;5123839;28;20048;-64
2021/12/13 08:14:50;;;;;;;19.48;12.73;;;9.50;99.90;;;;;;4994950;28;20053;-62
2021/12/13 08:17:26;;;;;;;19.60;13.02;;;9.50;99.90;;;;;;5015096;28;20061;-60
2021/12/13 08:20:01;;;;;;;20.92;13.30;;;9.50;99.90;;;;;;5021292;28;20065;-60
2021/12/13 08:22:29;;;;;;;23.08;13.60;;;9.50;99.90;;;;;;5020298;28;20046;-60
2021/12/13 08:24:59;;;;;;;23.13;14.60;;;9.50;99.90;;;;;;5020724;28;20051;-61
2021/12/13 08:27:30;;;;;;;21.05;13.80;;;9.50;99.90;;;;;;5003789;28;20651;-61
2021/12/13 08:30:27;;;;;;;25.67;15.18;;;9.50;99.90;;;;;;5021175;28;20081;-62
2021/12/13 08:33:15;;;;;;;23.38;15.00;;;9.50;99.90;;;;;;4952639;28;20111;-62
2021/12/13 08:35:53;;;;;;;22.73;14.43;;;9.60;99.90;;;;;;4970357;28;20186;-62
2021/12/13 08:38:35;;;;;;;23.98;15.90;;;9.60;99.90;;;;;;4948942;28;20070;-62
2021/12/13 08:41:25;;;;;;;30.88;16.48;;;9.60;99.90;;;;;;4963289;28;20083;-62
2021/12/13 08:43:57;;;;;;;20.45;15.48;;;9.60;99.90;;;;;;4943225;29;20075;-62
2021/12/13 08:46:55;;;;;;;23.60;16.58;;;9.60;99.90;;;;;;4961979;28;20090;-62
2021/12/13 08:49:34;;;;;;;22.48;16.13;;;9.60;99.90;;;;;;4961609;29;20065;-62
2021/12/13 08:52:09;;;;;;;28.58;17.90;;;9.60;99.90;;;;;;4994162;28;20118;-62
2021/12/13 08:54:53;;;;;;;23.27;16.95;;;9.70;99.90;;;;;;5027582;28;20235;-63
2021/12/13 08:57:40;;;;;;;29.63;17.17;;;9.70;99.90;;;;;;5023800;28;20057;-74
2021/12/13 09:00:22;;;;;;;25.20;17.25;;;9.70;99.90;;;;;;5007358;28;20108;-63
2021/12/13 09:02:56;;;;;;;27.23;16.60;;;9.70;99.90;;;;;;5023385;28;20096;-63
2021/12/13 09:05:25;;;;;;;23.80;17.27;;;9.70;99.90;;;;;;5040176;28;20041;-64
2021/12/13 09:07:55;;;;;;;22.25;16.88;;;9.70;99.90;;;;;;5023139;28;20499;-63
2021/12/13 09:10:33;;;;;;;25.40;16.60;;;9.70;99.90;;;;;;5101160;28;20063;-63
2021/12/13 09:12:59;;;;;;;26.15;17.67;;;9.70;99.90;;;;;;5122859;28;20140;-63
2021/12/13 09:15:30;;;;;;;24.98;17.63;;;9.80;99.90;;;;;;5122818;28;20035;-65
2021/12/13 09:17:56;;;;;;;23.85;17.20;;;9.80;99.90;;;;;;5103882;28;20059;-63
2021/12/13 09:20:28;;;;;;;24.50;17.50;;;9.80;99.90;;;;;;5104538;28;20061;-64
2021/12/13 09:23:06;;;;;;;23.73;16.35;;;9.80;99.90;;;;;;5123297;28;20123;-63
2021/12/13 09:25:47;;;;;;;28.02;16.98;;;9.80;99.90;;;;;;5099770;28;20032;-65
2021/12/13 09:28:24;;;;;;;23.08;17.00;;;9.80;99.90;;;;;;5115013;28;20122;-63
2021/12/13 09:31:02;;;;;;;22.45;16.65;;;9.80;99.90;;;;;;5102843;28;20046;-63
2021/12/13 09:33:42;;;;;;;24.30;17.08;;;9.90;99.90;;;;;;5092457;28;20032;-64
2021/12/13 09:36:12;;;;;;;22.45;17.05;;;9.90;99.90;;;;;;5094989;28;20065;-70
2021/12/13 09:38:52;;;;;;;29.45;17.05;;;9.90;99.90;;;;;;5121962;28;20062;-66
2021/12/13 09:41:41;;;;;;;28.17;17.63;;;9.90;99.90;;;;;;5109820;28;20043;-62
2021/12/13 09:44:10;;;;;;;23.45;17.23;;;9.90;99.90;;;;;;5104486;28;20133;-63
2021/12/13 09:46:41;;;;;;;25.75;15.18;;;9.90;99.90;;;;;;5122542;28;20133;-63
2021/12/13 09:49:42;;;;;;;21.88;16.90;;;9.90;99.90;;;;;;5118339;28;20051;-66
2021/12/13 09:52:16;;;;;;;21.98;15.25;;;9.90;99.90;;;;;;5032006;28;20099;-68
2021/12/13 09:55:07;;;;;;;26.13;16.55;;;9.90;99.90;;;;;;5017866;28;20045;-65
2021/12/13 09:57:42;;;;;;;22.13;15.98;;;9.90;99.90;;;;;;5033615;28;20055;-65
2021/12/13 10:00:40;;;;;;;25.67;17.75;;;10.00;99.90;;;;;;5039634;28;20050;-72
2021/12/13 10:03:12;;;;;;;23.63;17.10;;;10.00;99.90;;;;;;4999277;28;20058;-64
2021/12/13 10:05:42;;;;;;;25.50;17.17;;;10.00;99.90;;;;;;5004335;28;20062;-65
2021/12/13 10:08:19;;;;;;;25.65;17.70;;;10.00;99.90;;;;;;4999838;28;20114;-64
2021/12/13 10:10:55;;;;;;;27.48;15.73;;;10.00;99.90;;;;;;4984257;28;20690;-64
2021/12/13 10:13:29;;;;;;;21.08;15.52;;;10.00;99.90;;;;;;5000706;28;20445;-64
2021/12/13 10:15:59;;;;;;;21.77;15.65;;;10.00;99.90;;;;;;4983728;28;20116;-64
2021/12/13 10:18:29;;;;;;;17.90;14.98;;;10.00;99.90;;;;;;4965401;28;20566;-63
2021/12/13 10:20:59;;;;;;;20.33;14.55;;;10.10;99.90;;;;;;4987075;28;20237;-62
2021/12/13 10:23:31;;;;;;;19.13;14.55;;;10.00;99.90;;;;;;4997806;28;20516;-71
2021/12/13 10:26:00;;;;;;;17.58;13.88;;;10.00;99.90;;;;;;5003885;28;20062;-62
2021/12/13 10:28:30;;;;;;;17.98;15.02;;;10.00;99.90;;;;;;5003152;28;20057;-61
2021/12/13 10:31:22;;;;;;;17.13;14.18;;;10.00;99.90;;;;;;5023919;28;20050;-61
2021/12/13 10:33:48;;;;;;;22.67;14.48;;;10.00;99.90;;;;;;4945997;29;20063;-62
2021/12/13 10:36:15;;;;;;;17.85;14.20;;;10.00;99.90;;;;;;4948661;29;20102;-63
2021/12/13 10:38:47;;;;;;;17.90;14.35;;;10.00;99.90;;;;;;4944491;29;20559;-63
2021/12/13 10:41:19;;;;;;;17.45;13.70;;;10.10;99.90;;;;;;5029756;28;20057;-63
2021/12/13 10:43:48;;;;;;;17.40;13.63;;;10.10;99.90;;;;;;5034371;28;20045;-60
2021/12/13 10:46:20;;;;;;;24.67;13.48;;;10.20;99.90;;;;;;5022815;28;20072;-75
2021/12/13 10:48:49;;;;;;;17.45;13.52;;;10.20;99.90;;;;;;5030771;28;20057;-62
2021/12/13 10:51:22;;;;;;;17.10;13.00;;;10.20;99.90;;;;;;5029861;28;20058;-63
2021/12/13 10:53:50;;;;;;;19.77;13.70;;;10.20;99.90;;;;;;5005420;28;20053;-64
2021/12/13 10:56:23;;;;;;;19.35;14.50;;;10.30;99.90;;;;;;5021936;28;20062;-65
2021/12/13 10:58:53;;;;;;;19.80;13.63;;;10.30;99.90;;;;;;5002719;28;20096;-65
2021/12/13 11:01:25;;;;;;;20.88;13.65;;;10.20;99.90;;;;;;4981417;28;20057;-65
2021/12/13 11:03:54;;;;;;;20.30;14.15;;;10.20;99.90;;;;;;5021959;28;20057;-65
2021/12/13 11:06:21;;;;;;;18.63;13.90;;;10.20;99.90;;;;;;5005326;28;20053;-65
2021/12/13 11:08:47;;;;;;;19.77;13.95;;;10.20;99.90;;;;;;5006025;28;20551;-64
2021/12/13 11:11:24;;;;;;;22.50;14.48;;;10.20;99.90;;;;;;5094662;28;20055;-65
2021/12/13 11:13:54;;;;;;;16.88;13.60;;;10.20;99.90;;;;;;5106479;28;20051;-64
2021/12/13 11:16:24;;;;;;;19.15;14.07;;;10.20;99.90;;;;;;5106202;28;20067;-64
2021/12/13 11:18:50;;;;;;;20.10;13.95;;;10.20;99.90;;;;;;5106309;28;20093;-64
2021/12/13 11:21:24;;;;;;;18.33;14.27;;;10.20;99.90;;;;;;5106137;28;20051;-64
2021/12/13 11:23:51;;;;;;;22.13;14.23;;;10.30;99.90;;;;;;5125021;28;20068;-62
2021/12/13 11:26:22;;;;;;;19.63;13.95;;;10.30;99.90;;;;;;5104508;28;20474;-63
2021/12/13 11:28:48;;;;;;;21.70;15.50;;;10.30;99.90;;;;;;5098911;28;20044;-63
2021/12/13 11:31:30;;;;;;;20.50;14.70;;;10.30;99.90;;;;;;5099387;28;20069;-61
2021/12/13 11:34:02;;;;;;;20.00;14.82;;;10.30;99.90;;;;;;5124524;28;20510;-61
2021/12/13 11:37:06;;;;;;;21.02;14.82;;;10.30;99.90;;;;;;5105826;28;20062;-61
2021/12/13 11:40:11;;;;;;;23.25;14.15;;;10.30;99.90;;;;;;5124244;28;20123;-62
2021/12/13 11:43:03;;;;;;;22.00;15.10;;;10.30;99.90;;;;;;5106425;28;20096;-62
2021/12/13 11:45:50;;;;;;;21.45;14.40;;;10.30;99.90;;;;;;5107507;28;20040;-64
2021/12/13 11:48:38;;;;;;;23.80;14.88;;;10.30;99.90;;;;;;5105165;28;20103;-58
2021/12/13 11:51:37;;;;;;;22.08;15.18;;;10.30;99.90;;;;;;5124561;28;20048;-63
2021/12/13 11:54:33;;;;;;;21.35;13.85;;;10.30;99.90;;;;;;5121116;28;20100;-62
2021/12/13 11:57:37;;;;;;;22.95;14.27;;;10.30;99.90;;;;;;5101517;28;20055;-62
2021/12/13 12:00:11;;;;;;;21.38;14.23;;;10.30;99.90;;;;;;5095240;28;20049;-64
2021/12/13 12:03:07;;;;;;;18.85;13.68;;;10.40;99.90;;;;;;5105124;28;20074;-66
2021/12/13 12:05:47;;;;;;;23.63;14.60;;;10.40;99.90;;;;;;5105538;28;20048;-63
2021/12/13 12:08:47;;;;;;;17.50;13.95;;;10.40;99.90;;;;;;5123791;28;20048;-64
2021/12/13 12:11:31;;;;;;;18.90;14.23;;;10.40;99.90;;;;;;5105651;28;20443;-64
2021/12/13 12:14:09;;;;;;;18.90;13.32;;;10.50;99.90;;;;;;5123692;28;20516;-64
2021/12/13 12:16:42;;;;;;;22.13;13.80;;;10.50;99.90;;;;;;5105702;28;20147;-64
2021/12/13 12:19:14;;;;;;;18.60;12.80;;;10.50;99.90;;;;;;5104787;28;20048;-63
2021/12/13 12:21:52;;;;;;;19.17;14.00;;;10.50;99.90;;;;;;5123523;28;20043;-63
2021/12/13 12:24:22;;;;;;;21.02;14.15;;;10.50;99.90;;;;;;5123732;28;20050;-63
2021/12/13 12:26:57;;;;;;;20.15;13.23;;;10.50;99.90;;;;;;5123823;28;20048;-63
2021/12/13 12:29:27;;;;;;;20.60;14.85;;;10.50;99.90;;;;;;5120863;28;20087;-64
2021/12/13 12:32:01;;;;;;;21.55;14.48;;;10.40;99.90;;;;;;5123220;28;20044;-62
2021/12/13 12:34:27;;;;;;;22.33;15.95;;;10.50;99.90;;;;;;5100609;28;20052;-63
2021/12/13 12:36:58;;;;;;;21.48;15.70;;;10.40;99.90;;;;;;5103565;28;20051;-63
2021/12/13 12:40:02;;;;;;;25.92;16.73;;;10.40;99.90;;;;;;5122047;28;20043;-63
2021/12/13 12:42:27;;;;;;;26.67;17.27;;;10.40;99.90;;;;;;5122097;28;20454;-58
2021/12/13 12:44:56;;;;;;;26.57;17.37;;;10.40;99.90;;;;;;5078700;28;20124;-64
2021/12/13 12:47:50;;;;;;;27.33;17.48;;;10.40;99.90;;;;;;5123047;28;20042;-65
2021/12/13 12:50:22;;;;;;;29.02;17.73;;;10.30;99.90;;;;;;5100771;28;20056;-61
2021/12/13 12:52:50;;;;;;;26.92;17.70;;;10.30;99.90;;;;;;5103939;28;20055;-65
2021/12/13 12:55:20;;;;;;;26.08;17.67;;;10.30;99.90;;;;;;5118656;28;20082;-67
2021/12/13 12:57:46;;;;;;;30.77;17.63;;;10.30;99.90;;;;;;5122518;28;20054;-64
2021/12/13 13:00:13;;;;;;;26.42;15.77;;;10.30;99.90;;;;;;5101744;28;20119;-61
2021/12/13 13:02:38;;;;;;;32.05;17.25;;;10.20;99.90;;;;;;5122470;28;20466;-64
2021/12/13 13:05:08;;;;;;;31.48;17.50;;;10.20;99.90;;;;;;5123503;28;20097;-63
2021/12/13 13:07:38;;;;;;;25.83;16.98;;;10.20;99.90;;;;;;5109455;28;20093;-63
2021/12/13 13:13:11;;;;;;;32.20;16.88;;;10.20;99.90;;;;;;5035088;28;20053;-64
2021/12/13 13:15:49;;;;;;;29.73;16.45;;;10.20;99.90;;;;;;5048811;28;20080;-62
2021/12/13 13:18:24;;;;;;;32.67;17.90;;;10.20;99.90;;;;;;5059493;28;20164;-63
2021/12/13 13:21:04;;;;;;;33.78;17.65;;;10.30;99.90;;;;;;5060119;28;20127;-63
2021/12/13 13:23:47;;;;;;;28.20;18.52;;;10.30;99.90;;;;;;5038949;28;20128;-62
2021/12/13 13:26:16;;;;;;;27.83;17.40;;;10.30;99.90;;;;;;5027927;28;20060;-64